Time;durP1;ratioP1;P1;durP2;ratioP2;P2;SDS_P1;SDS_P2;PMS_P1;PMS_P2;Temp;Humidity;BMP_temperature;BMP_pressure;BME280_temperature;BME280_humidity;BME280_pressure;Samples;Min_cycle;Max_cycle;Signal;HPM_P1;HPM_P2
2022/10/21 00:00:01;;;;;;;62.80;31.30;;;11.60;99.90;;;;;;5131732;28;20090;-79
2022/10/21 00:02:26;;;;;;;56.67;30.40;;;11.60;99.90;;;;;;5113267;28;20051;-76
2022/10/21 00:04:53;;;;;;;60.78;31.15;;;11.60;99.90;;;;;;5114764;28;20419;-77
2022/10/21 00:07:18;;;;;;;56.47;29.15;;;11.50;99.90;;;;;;5113201;28;20517;-76
2022/10/21 00:09:44;;;;;;;67.28;34.30;;;11.50;99.90;;;;;;5131221;28;20058;-77
2022/10/21 00:12:10;;;;;;;68.65;32.85;;;11.50;99.90;;;;;;5112900;28;20047;-79
2022/10/21 00:14:36;;;;;;;54.80;30.38;;;11.50;99.90;;;;;;5113298;28;20058;-77
2022/10/21 00:17:02;;;;;;;68.60;31.90;;;11.50;99.90;;;;;;5131120;28;20050;-76
2022/10/21 00:19:28;;;;;;;72.57;32.63;;;11.50;99.90;;;;;;5097453;28;20047;-77
2022/10/21 00:21:54;;;;;;;63.95;32.78;;;11.50;99.90;;;;;;5114584;28;20491;-78
2022/10/21 00:24:20;;;;;;;57.85;31.27;;;11.50;99.90;;;;;;5095924;28;20479;-76
2022/10/21 00:26:49;;;;;;;58.53;30.13;;;11.50;99.90;;;;;;5096112;28;20059;-77
2022/10/21 00:29:15;;;;;;;59.22;32.83;;;11.50;99.90;;;;;;5130937;28;20047;-77
2022/10/21 00:31:41;;;;;;;65.28;33.05;;;11.50;99.90;;;;;;5131205;28;20043;-77
2022/10/21 00:34:07;;;;;;;61.97;31.70;;;11.50;99.90;;;;;;5131202;28;20107;-78
2022/10/21 00:36:33;;;;;;;68.80;33.45;;;11.50;99.90;;;;;;5112893;28;20130;-77
2022/10/21 00:38:59;;;;;;;74.20;33.97;;;11.50;99.90;;;;;;5095964;28;20180;-78
2022/10/21 00:41:25;;;;;;;61.47;32.13;;;11.50;99.90;;;;;;5134365;27;20050;-77
2022/10/21 00:43:57;;;;;;;68.55;34.25;;;11.50;99.90;;;;;;5116615;27;20453;-78
2022/10/21 00:46:38;;;;;;;63.95;31.98;;;11.50;99.90;;;;;;5136227;27;20050;-76
2022/10/21 00:49:23;;;;;;;60.92;31.75;;;11.40;99.90;;;;;;5116261;27;20051;-78
2022/10/21 00:51:51;;;;;;;;;;;11.40;99.90;;;;;;5137337;27;20047;-78
2022/10/21 00:54:20;;;;;;;86.78;34.65;;;11.40;99.90;;;;;;5116164;27;19919;-78
2022/10/21 00:56:48;;;;;;;63.83;33.15;;;11.40;99.90;;;;;;5099226;27;20051;-79
2022/10/21 00:59:15;;;;;;;61.13;31.13;;;11.40;99.90;;;;;;5135697;27;20090;-78
2022/10/21 01:01:41;;;;;;;67.95;34.40;;;11.40;99.90;;;;;;5134440;27;20043;-79
2022/10/21 01:04:08;;;;;;;79.60;36.47;;;11.40;99.90;;;;;;5116176;27;20055;-77
2022/10/21 01:06:35;;;;;;;74.22;34.97;;;11.40;99.90;;;;;;5116023;27;20245;-78
2022/10/21 01:09:01;;;;;;;71.05;34.20;;;11.30;99.90;;;;;;5115655;27;20054;-77
2022/10/21 01:11:28;;;;;;;69.82;34.40;;;11.30;99.90;;;;;;5115746;27;20039;-76
2022/10/21 01:14:13;;;;;;;70.35;33.42;;;11.30;99.90;;;;;;5116308;27;20536;-76
2022/10/21 01:16:46;;;;;;;64.80;32.53;;;11.30;99.90;;;;;;5115670;27;20462;-76
2022/10/21 01:19:15;;;;;;;78.10;35.50;;;11.30;99.90;;;;;;5134440;27;20051;-79
2022/10/21 01:21:48;;;;;;;84.32;33.75;;;11.30;99.90;;;;;;5134024;27;20054;-79
2022/10/21 01:24:26;;;;;;;60.83;31.98;;;11.30;99.90;;;;;;5133795;27;20047;-78
2022/10/21 01:27:13;;;;;;;70.95;34.00;;;11.30;99.90;;;;;;5136135;27;20108;-77
2022/10/21 01:29:55;;;;;;;78.10;35.15;;;11.20;99.90;;;;;;5116884;27;20050;-76
2022/10/21 01:32:23;;;;;;;69.75;34.08;;;11.20;99.90;;;;;;5116601;27;20055;-76
2022/10/21 01:35:02;;;;;;;79.30;35.05;;;11.20;99.90;;;;;;5116169;27;20051;-77
2022/10/21 01:37:49;;;;;;;66.05;32.80;;;11.30;99.90;;;;;;5133708;27;20050;-77
2022/10/21 01:40:24;;;;;;;74.25;35.50;;;11.30;99.90;;;;;;5133802;27;20088;-78
2022/10/21 01:43:04;;;;;;;67.05;34.90;;;11.30;99.90;;;;;;5115729;27;20051;-77
2022/10/21 01:45:46;;;;;;;71.80;34.03;;;11.30;99.90;;;;;;5115359;27;20179;-77
2022/10/21 01:48:24;;;;;;;81.45;35.53;;;11.30;99.90;;;;;;5091544;28;20080;-77
2022/10/21 01:50:58;;;;;;;70.47;34.15;;;11.20;99.90;;;;;;5108012;28;20098;-76
2022/10/21 01:53:29;;;;;;;67.05;33.58;;;11.30;99.90;;;;;;5090189;28;20466;-77
2022/10/21 01:55:57;;;;;;;67.43;34.92;;;11.30;99.90;;;;;;5092247;28;20487;-77
2022/10/21 01:58:29;;;;;;;72.45;35.88;;;11.40;99.90;;;;;;5093224;28;20455;-78
2022/10/21 02:00:57;;;;;;;72.55;36.13;;;11.30;99.90;;;;;;5092667;28;20127;-77
2022/10/21 02:03:27;;;;;;;72.05;35.13;;;11.40;99.90;;;;;;5092514;28;20048;-76
2022/10/21 02:05:53;;;;;;;69.18;32.53;;;11.40;99.90;;;;;;5091178;28;20052;-79
2022/10/21 02:08:19;;;;;;;63.72;32.30;;;11.40;99.90;;;;;;5092401;28;20044;-78
2022/10/21 02:10:49;;;;;;;69.30;34.38;;;11.40;99.90;;;;;;5090833;28;20412;-78
2022/10/21 02:13:21;;;;;;;81.60;37.08;;;11.40;99.90;;;;;;5108572;28;20051;-77
2022/10/21 02:15:47;;;;;;;79.80;35.60;;;11.40;99.90;;;;;;5092220;28;20052;-79
2022/10/21 02:18:20;;;;;;;74.78;35.00;;;11.40;99.90;;;;;;5092257;28;20377;-78
2022/10/21 02:20:50;;;;;;;62.35;33.20;;;11.50;99.90;;;;;;5092040;28;20044;-79
2022/10/21 02:23:20;;;;;;;59.55;31.25;;;11.50;99.90;;;;;;5091366;28;20056;-78
2022/10/21 02:25:49;;;;;;;72.25;34.20;;;11.50;99.90;;;;;;5091135;28;20052;-77
2022/10/21 02:28:15;;;;;;;74.07;34.42;;;11.50;99.90;;;;;;5108080;28;20071;-78
2022/10/21 02:31:17;;;;;;;69.95;34.40;;;11.50;99.90;;;;;;5107812;28;20047;-79
2022/10/21 02:34:26;;;;;;;67.43;32.95;;;11.50;99.90;;;;;;5091957;28;20052;-78
2022/10/21 02:37:10;;;;;;;64.60;33.72;;;11.50;99.90;;;;;;5092046;28;20048;-78
2022/10/21 02:39:46;;;;;;;79.65;36.97;;;11.50;99.90;;;;;;5090506;28;20173;-77
2022/10/21 02:42:18;;;;;;;70.45;35.10;;;11.50;99.90;;;;;;5092022;28;20090;-79
2022/10/21 02:44:44;;;;;;;61.03;32.83;;;11.50;99.90;;;;;;5107601;28;20082;-79
2022/10/21 02:47:10;;;;;;;67.97;33.58;;;11.50;99.90;;;;;;5120767;27;20051;-79
2022/10/21 02:49:36;;;;;;;62.50;32.63;;;11.50;99.90;;;;;;5110436;28;20054;-80
2022/10/21 02:52:02;;;;;;;72.65;35.97;;;11.50;99.90;;;;;;5111775;28;20051;-77
2022/10/21 02:54:27;;;;;;;63.10;32.97;;;11.50;99.90;;;;;;5110401;28;20044;-77
2022/10/21 02:56:53;;;;;;;64.57;32.65;;;11.60;99.90;;;;;;5076461;28;20047;-76
2022/10/21 02:59:19;;;;;;;73.03;33.97;;;11.60;99.90;;;;;;5112168;28;20403;-78
2022/10/21 03:01:45;;;;;;;75.90;36.42;;;11.60;99.90;;;;;;5112314;28;20032;-77
2022/10/21 03:04:11;;;;;;;60.72;32.83;;;11.60;99.90;;;;;;5111009;28;20054;-77
2022/10/21 03:06:37;;;;;;;63.35;33.30;;;11.70;99.90;;;;;;5112219;28;20125;-78
2022/10/21 03:09:04;;;;;;;70.50;35.38;;;11.70;99.90;;;;;;5110683;28;20051;-78
2022/10/21 03:11:30;;;;;;;71.22;35.35;;;11.70;99.90;;;;;;5111618;28;20051;-77
2022/10/21 03:13:56;;;;;;;72.53;35.97;;;11.80;99.90;;;;;;5110457;28;20044;-79
2022/10/21 03:16:22;;;;;;;74.60;35.35;;;11.80;99.90;;;;;;5110016;28;20109;-77
2022/10/21 03:18:47;;;;;;;83.38;38.25;;;11.90;99.90;;;;;;5111765;28;20113;-79
2022/10/21 03:21:13;;;;;;;93.75;39.08;;;11.90;99.90;;;;;;5111579;28;20048;-78
2022/10/21 03:23:40;;;;;;;76.05;36.97;;;11.90;99.90;;;;;;5111599;28;20479;-77
2022/10/21 03:26:06;;;;;;;95.25;40.50;;;12.00;99.90;;;;;;5111488;28;20082;-77
2022/10/21 03:28:32;;;;;;;103.05;44.05;;;12.10;99.90;;;;;;5109853;28;20064;-77
2022/10/21 03:30:58;;;;;;;82.25;39.05;;;12.10;99.90;;;;;;5109743;28;20158;-76
2022/10/21 03:33:24;;;;;;;87.90;36.95;;;12.20;99.90;;;;;;5111213;28;20131;-78
2022/10/21 03:35:49;;;;;;;72.55;34.28;;;12.20;99.90;;;;;;5110037;28;20195;-77
2022/10/21 03:38:15;;;;;;;77.82;36.15;;;12.20;99.90;;;;;;5093349;28;20050;-77
2022/10/21 03:40:41;;;;;;;97.00;39.78;;;12.20;99.90;;;;;;5111297;28;20051;-77
2022/10/21 03:43:10;;;;;;;125.07;43.50;;;12.20;99.90;;;;;;5109646;28;20052;-76
2022/10/21 03:45:36;;;;;;;195.82;53.08;;;12.30;99.90;;;;;;5111381;28;20048;-77
2022/10/21 03:48:02;;;;;;;124.35;44.30;;;12.20;99.90;;;;;;5090822;28;20044;-77
2022/10/21 03:50:28;;;;;;;152.95;45.95;;;12.20;99.90;;;;;;5106086;28;20051;-78
2022/10/21 03:52:54;;;;;;;71.45;32.35;;;12.30;99.90;;;;;;5090818;28;20059;-78
2022/10/21 03:55:22;;;;;;;75.78;31.98;;;12.30;99.90;;;;;;5089582;28;20048;-77
2022/10/21 03:57:49;;;;;;;262.08;56.42;;;12.30;99.90;;;;;;5090611;28;20044;-77
2022/10/21 04:00:15;;;;;;;60.50;30.02;;;12.40;99.90;;;;;;5089503;28;20064;-77
2022/10/21 04:02:41;;;;;;;68.45;30.40;;;12.40;99.90;;;;;;5090403;28;20051;-76
2022/10/21 04:05:08;;;;;;;51.08;27.25;;;12.40;99.90;;;;;;5090432;28;20135;-77
2022/10/21 04:07:34;;;;;;;51.53;24.85;;;12.50;99.90;;;;;;5089862;28;20060;-77
2022/10/21 04:10:00;;;;;;;53.05;25.42;;;12.60;99.90;;;;;;5090445;28;20048;-76
2022/10/21 04:12:26;;;;;;;51.80;23.83;;;12.70;99.90;;;;;;5106000;28;20056;-76
2022/10/21 04:14:52;;;;;;;56.65;26.88;;;12.80;99.90;;;;;;5106408;28;20139;-76
2022/10/21 04:17:18;;;;;;;57.00;26.38;;;12.80;99.90;;;;;;5092713;28;20056;-76
2022/10/21 04:19:44;;;;;;;51.13;24.98;;;12.80;99.90;;;;;;5110428;28;20110;-78
2022/10/21 04:22:10;;;;;;;56.20;24.98;;;12.80;99.90;;;;;;5094611;28;20048;-78
2022/10/21 04:24:36;;;;;;;49.15;23.23;;;12.80;99.90;;;;;;5093572;28;20616;-78
2022/10/21 04:27:02;;;;;;;46.33;22.33;;;12.80;99.90;;;;;;5110087;28;20082;-78
2022/10/21 04:29:28;;;;;;;47.90;22.63;;;12.80;99.90;;;;;;5110763;28;20078;-79
2022/10/21 04:31:54;;;;;;;49.58;23.98;;;12.80;99.90;;;;;;5110981;28;20059;-77
2022/10/21 04:34:20;;;;;;;46.83;22.48;;;12.80;99.90;;;;;;5110093;28;20056;-78
2022/10/21 04:36:46;;;;;;;79.32;29.58;;;12.80;99.90;;;;;;5094379;28;20058;-78
2022/10/21 04:39:12;;;;;;;57.28;26.42;;;12.80;99.90;;;;;;5092989;28;20087;-78
2022/10/21 04:41:38;;;;;;;68.20;28.10;;;12.80;99.90;;;;;;5093892;28;20102;-77
2022/10/21 04:44:05;;;;;;;54.72;25.20;;;12.80;99.90;;;;;;5093650;28;20091;-77
2022/10/21 04:46:31;;;;;;;59.20;26.38;;;12.80;99.90;;;;;;5108959;27;20545;-78
2022/10/21 04:48:57;;;;;;;64.25;26.60;;;12.70;99.90;;;;;;5082120;27;20525;-78
2022/10/21 04:51:23;;;;;;;97.03;33.42;;;12.70;99.90;;;;;;5116122;27;20043;-78
2022/10/21 04:53:49;;;;;;;55.05;26.20;;;12.70;99.90;;;;;;5116251;27;20380;-80
2022/10/21 04:56:15;;;;;;;59.92;26.45;;;12.70;99.90;;;;;;5116286;27;20058;-78
2022/10/21 04:58:41;;;;;;;65.57;29.48;;;12.70;99.90;;;;;;5115899;27;20570;-78
2022/10/21 05:01:07;;;;;;;47.67;23.27;;;12.70;99.90;;;;;;5134375;27;20047;-78
2022/10/21 05:03:33;;;;;;;56.70;27.55;;;12.70;99.90;;;;;;5115973;27;20050;-77
2022/10/21 05:05:58;;;;;;;82.97;32.50;;;12.70;99.90;;;;;;5099541;27;20097;-78
2022/10/21 05:08:24;;;;;;;91.03;31.60;;;12.60;99.90;;;;;;5116035;27;20043;-78
2022/10/21 05:10:57;;;;;;;58.97;27.50;;;12.60;99.90;;;;;;5134478;27;20380;-79
2022/10/21 05:13:22;;;;;;;51.45;24.70;;;12.60;99.90;;;;;;5116187;27;20047;-78
2022/10/21 05:15:48;;;;;;;73.50;31.48;;;12.50;99.90;;;;;;5134299;27;20050;-78
2022/10/21 05:18:14;;;;;;;86.45;33.53;;;12.50;99.90;;;;;;5134110;27;20487;-77
2022/10/21 05:20:41;;;;;;;45.67;25.23;;;12.40;99.90;;;;;;5116472;27;20058;-77
2022/10/21 05:23:07;;;;;;;63.88;30.15;;;12.50;99.90;;;;;;5116342;27;20051;-76
2022/10/21 05:25:33;;;;;;;74.15;32.47;;;12.40;99.90;;;;;;5134302;27;20047;-77
2022/10/21 05:27:59;;;;;;;75.53;33.15;;;12.40;99.90;;;;;;5115198;27;20059;-77
2022/10/21 05:30:25;;;;;;;72.65;32.53;;;12.40;99.90;;;;;;5115415;27;20047;-77
2022/10/21 05:32:51;;;;;;;62.35;29.00;;;12.40;99.90;;;;;;5098601;27;20456;-77
2022/10/21 05:37:52;;;;;;;70.07;30.52;;;12.40;99.90;;;;;;5086269;22;20065;-76
2022/10/21 05:40:18;;;;;;;71.18;32.97;;;12.30;99.90;;;;;;5032885;28;20060;-77
2022/10/21 05:42:44;;;;;;;88.07;35.22;;;12.30;99.90;;;;;;5032682;28;20046;-77
2022/10/21 05:45:13;;;;;;;79.40;33.97;;;12.30;99.90;;;;;;5031488;28;20462;-76
2022/10/21 05:47:42;;;;;;;99.90;37.80;;;12.30;99.90;;;;;;5032968;28;20132;-76
2022/10/21 05:50:10;;;;;;;84.35;34.40;;;12.30;99.90;;;;;;5032832;28;20045;-78
2022/10/21 05:52:37;;;;;;;76.57;35.35;;;12.20;99.90;;;;;;5033544;28;20049;-78
2022/10/21 05:55:04;;;;;;;97.90;37.60;;;12.20;99.90;;;;;;5031351;28;20053;-78
2022/10/21 05:57:34;;;;;;;94.43;38.38;;;12.20;99.90;;;;;;4998569;28;20116;-79
2022/10/21 06:00:00;;;;;;;80.72;36.60;;;12.20;99.90;;;;;;5032271;28;20103;-77
2022/10/21 06:02:26;;;;;;;95.88;38.03;;;12.20;99.90;;;;;;5032230;28;20429;-78
2022/10/21 06:04:52;;;;;;;99.95;41.72;;;12.20;99.90;;;;;;5014969;28;20049;-76
2022/10/21 06:07:18;;;;;;;109.93;42.65;;;12.30;99.90;;;;;;5031305;28;20500;-76
2022/10/21 06:09:44;;;;;;;105.85;40.17;;;12.30;99.90;;;;;;5032321;28;20104;-77
2022/10/21 06:12:09;;;;;;;104.70;41.05;;;12.30;99.90;;;;;;5032509;28;20401;-76
2022/10/21 06:14:35;;;;;;;135.20;44.95;;;12.30;99.90;;;;;;5032118;28;20046;-77
2022/10/21 06:17:03;;;;;;;77.38;35.70;;;12.30;99.90;;;;;;5014917;28;20129;-77
2022/10/21 06:19:29;;;;;;;83.38;38.92;;;12.20;99.90;;;;;;5014280;28;20390;-76
2022/10/21 06:21:56;;;;;;;87.85;37.85;;;12.20;99.90;;;;;;5031985;28;20075;-78
2022/10/21 06:24:23;;;;;;;102.75;40.13;;;12.20;99.90;;;;;;4998540;28;20049;-77
2022/10/21 06:26:52;;;;;;;96.97;38.00;;;12.20;99.90;;;;;;4997957;28;20051;-77
2022/10/21 06:29:18;;;;;;;121.93;43.80;;;12.10;99.90;;;;;;5031769;28;20493;-78
2022/10/21 06:31:44;;;;;;;95.97;38.50;;;12.10;99.90;;;;;;5014316;28;20046;-78
2022/10/21 06:34:10;;;;;;;100.55;39.45;;;12.20;99.90;;;;;;4998107;28;20045;-77
2022/10/21 06:36:39;;;;;;;85.63;38.83;;;12.20;99.90;;;;;;5031152;28;20057;-78
2022/10/21 06:39:07;;;;;;;96.45;38.40;;;12.20;99.90;;;;;;5031023;28;20041;-78
2022/10/21 06:41:33;;;;;;;83.53;37.85;;;12.20;99.90;;;;;;5031739;28;20146;-77
2022/10/21 06:43:59;;;;;;;85.03;38.50;;;12.30;99.90;;;;;;5031339;28;20505;-78
2022/10/21 06:46:25;;;;;;;96.03;41.15;;;12.30;99.90;;;;;;5013755;28;20093;-77
2022/10/21 06:48:51;;;;;;;90.13;39.05;;;12.30;99.90;;;;;;5031756;28;20489;-77
2022/10/21 06:51:20;;;;;;;80.10;37.85;;;12.40;99.90;;;;;;5031701;28;20060;-79
2022/10/21 06:53:50;;;;;;;79.03;36.55;;;12.50;99.90;;;;;;5031633;28;20096;-78
2022/10/21 06:56:18;;;;;;;120.93;43.90;;;12.50;99.90;;;;;;5013862;28;20057;-78
2022/10/21 06:58:46;;;;;;;75.85;35.80;;;12.50;99.90;;;;;;5031004;28;20046;-77
2022/10/21 07:01:15;;;;;;;91.82;38.63;;;12.50;99.90;;;;;;5013840;28;20049;-76
2022/10/21 07:03:41;;;;;;;102.63;41.25;;;12.50;99.90;;;;;;5013434;28;20684;-78
2022/10/21 07:06:07;;;;;;;74.40;36.67;;;12.50;99.90;;;;;;5014002;28;20061;-77
2022/10/21 07:08:33;;;;;;;69.07;34.58;;;12.60;99.90;;;;;;5013210;28;20053;-77
2022/10/21 07:11:00;;;;;;;74.70;35.63;;;12.60;99.90;;;;;;5013852;28;20366;-77
2022/10/21 07:13:25;;;;;;;68.47;35.80;;;12.60;99.90;;;;;;5030792;28;20485;-77
2022/10/21 07:16:29;;;;;;;68.43;34.38;;;12.60;99.90;;;;;;5013037;28;20064;-77
2022/10/21 07:18:55;;;;;;;77.05;35.30;;;12.60;99.90;;;;;;5031487;28;20080;-76
2022/10/21 07:21:23;;;;;;;89.22;39.33;;;12.70;99.90;;;;;;5013758;28;20417;-78
2022/10/21 07:23:50;;;;;;;76.95;36.97;;;12.70;99.90;;;;;;5030831;28;20091;-76
2022/10/21 07:26:17;;;;;;;76.97;37.58;;;12.80;99.90;;;;;;5013074;28;20046;-77
2022/10/21 07:28:46;;;;;;;83.25;40.20;;;12.80;99.90;;;;;;5013103;28;20069;-77
2022/10/21 07:31:16;;;;;;;79.80;38.17;;;12.80;99.90;;;;;;5031113;28;20054;-77
2022/10/21 07:33:43;;;;;;;74.03;36.85;;;12.90;99.90;;;;;;5013148;28;20053;-77
2022/10/21 07:36:15;;;;;;;84.25;39.53;;;13.00;99.90;;;;;;5012790;28;20107;-78
2022/10/21 07:38:45;;;;;;;85.22;39.42;;;13.10;99.90;;;;;;5030993;28;20112;-77
2022/10/21 07:41:25;;;;;;;77.32;36.53;;;13.10;99.90;;;;;;5030977;28;20188;-77
2022/10/21 07:43:52;;;;;;;66.43;35.17;;;13.20;99.90;;;;;;5030796;28;20060;-79
2022/10/21 07:46:19;;;;;;;70.00;35.50;;;13.30;99.90;;;;;;5012922;28;20141;-78
2022/10/21 07:48:46;;;;;;;70.28;36.00;;;13.30;99.90;;;;;;5030620;28;20041;-77
2022/10/21 07:51:14;;;;;;;86.38;38.17;;;13.30;99.90;;;;;;5016478;28;20057;-78
2022/10/21 07:53:40;;;;;;;65.60;34.58;;;13.30;99.90;;;;;;5017054;28;20141;-77
2022/10/21 07:56:06;;;;;;;58.60;33.35;;;13.40;99.90;;;;;;5017188;28;20057;-77
2022/10/21 07:58:32;;;;;;;61.05;34.17;;;13.40;99.90;;;;;;5017041;28;20100;-76
2022/10/21 08:01:03;;;;;;;54.80;33.15;;;13.50;99.90;;;;;;5034995;28;20489;-79
2022/10/21 08:03:29;;;;;;;63.22;34.92;;;13.50;99.90;;;;;;5034705;28;20069;-79
2022/10/21 08:05:56;;;;;;;56.30;31.35;;;13.60;99.90;;;;;;5035100;28;20049;-77
2022/10/21 08:08:23;;;;;;;58.08;32.47;;;13.70;99.90;;;;;;5034523;28;20057;-76
2022/10/21 08:10:50;;;;;;;55.67;30.88;;;13.80;99.90;;;;;;5034732;28;20068;-77
2022/10/21 08:13:17;;;;;;;50.97;29.23;;;13.80;99.90;;;;;;5016904;28;20144;-77
2022/10/21 08:15:48;;;;;;;51.67;29.23;;;13.90;99.90;;;;;;5034297;28;20057;-76
2022/10/21 08:18:14;;;;;;;47.97;30.00;;;13.90;99.90;;;;;;5034393;28;20045;-77
2022/10/21 08:20:42;;;;;;;51.88;27.98;;;13.90;99.90;;;;;;5016376;28;20049;-77
2022/10/21 08:23:10;;;;;;;51.13;28.75;;;14.00;99.90;;;;;;5016272;28;20052;-77
2022/10/21 08:25:37;;;;;;;49.75;27.70;;;14.00;99.90;;;;;;5033903;28;20184;-77
2022/10/21 08:28:04;;;;;;;50.55;28.88;;;14.00;99.90;;;;;;5017166;28;20367;-77
2022/10/21 08:30:31;;;;;;;44.58;26.40;;;14.00;99.90;;;;;;5033915;28;20123;-78
2022/10/21 08:32:57;;;;;;;48.92;28.02;;;14.00;99.90;;;;;;5033841;28;20049;-76
2022/10/21 08:35:24;;;;;;;44.20;26.55;;;14.10;99.90;;;;;;5034074;28;20050;-77
2022/10/21 08:37:50;;;;;;;39.72;25.73;;;14.10;99.90;;;;;;5033434;28;20049;-77
2022/10/21 08:40:17;;;;;;;42.53;27.05;;;14.10;99.90;;;;;;4999738;28;20057;-76
2022/10/21 08:42:44;;;;;;;54.05;29.95;;;14.10;99.90;;;;;;5016401;28;20441;-77
2022/10/21 08:45:36;;;;;;;44.40;25.30;;;14.20;99.90;;;;;;5016220;28;20084;-76
2022/10/21 08:48:06;;;;;;;42.58;23.10;;;14.20;99.90;;;;;;5016130;28;20057;-76
2022/10/21 08:50:40;;;;;;;40.45;24.90;;;14.20;99.90;;;;;;5033588;28;20474;-77
2022/10/21 08:53:26;;;;;;;42.35;24.08;;;14.30;99.90;;;;;;5033505;28;20053;-77
2022/10/21 08:55:59;;;;;;;37.35;24.13;;;14.30;99.90;;;;;;5016308;28;20510;-75
2022/10/21 08:58:25;;;;;;;45.33;25.42;;;14.30;99.90;;;;;;5033925;28;20053;-77
2022/10/21 09:01:02;;;;;;;34.42;22.15;;;14.40;99.90;;;;;;5015781;28;20061;-77
2022/10/21 09:03:37;;;;;;;39.15;23.40;;;14.40;99.90;;;;;;5033096;28;20046;-76
2022/10/21 09:06:28;;;;;;;35.85;23.38;;;14.40;99.90;;;;;;5015273;28;20477;-77
2022/10/21 09:09:12;;;;;;;40.75;23.92;;;14.50;99.90;;;;;;5015147;28;20641;-77
2022/10/21 09:11:50;;;;;;;39.75;25.20;;;14.50;99.90;;;;;;5033660;28;20378;-77
2022/10/21 09:14:42;;;;;;;34.72;22.42;;;14.50;99.90;;;;;;5015062;28;20053;-77
2022/10/21 09:17:24;;;;;;;31.90;21.13;;;14.50;99.90;;;;;;5015272;28;20068;-77
2022/10/21 09:20:13;;;;;;;37.08;22.35;;;14.60;99.90;;;;;;5015218;28;20049;-77
2022/10/21 09:22:54;;;;;;;35.97;23.23;;;14.60;99.90;;;;;;5015213;28;20060;-77
2022/10/21 09:25:39;;;;;;;37.58;23.55;;;14.70;99.90;;;;;;5015923;28;20084;-77
2022/10/21 09:28:11;;;;;;;;;;;14.80;99.90;;;;;;5016095;28;20089;-77
2022/10/21 09:30:38;;;;;;;35.95;21.77;;;14.80;99.90;;;;;;5015039;28;19925;-79
2022/10/21 09:33:22;;;;;;;39.95;21.50;;;14.80;99.90;;;;;;4998749;28;20049;-76
2022/10/21 09:36:21;;;;;;;30.20;19.98;;;14.90;99.90;;;;;;5033060;28;20379;-79
2022/10/21 09:38:56;;;;;;;34.28;21.20;;;14.90;99.90;;;;;;5015533;28;20108;-77
2022/10/21 09:41:28;;;;;;;33.72;20.35;;;14.90;99.90;;;;;;5033399;28;20144;-78
2022/10/21 09:43:55;;;;;;;29.65;19.77;;;14.90;99.90;;;;;;5015196;28;20054;-79
2022/10/21 09:46:21;;;;;;;31.08;18.52;;;14.90;99.90;;;;;;5032682;28;20051;-77
2022/10/21 09:48:53;;;;;;;32.65;22.08;;;14.90;99.90;;;;;;5014954;28;20053;-77
2022/10/21 09:51:24;;;;;;;30.25;19.83;;;15.00;99.90;;;;;;5014714;28;20060;-78
2022/10/21 09:53:55;;;;;;;30.52;19.15;;;15.00;99.90;;;;;;5032649;28;20041;-77
2022/10/21 09:56:24;;;;;;;28.25;19.00;;;15.10;99.90;;;;;;5032542;28;20061;-77
2022/10/21 09:59:08;;;;;;;37.95;22.77;;;15.20;99.90;;;;;;5033337;28;20107;-77
2022/10/21 10:01:36;;;;;;;31.20;20.92;;;15.20;99.90;;;;;;5032407;28;20477;-79
2022/10/21 10:04:29;;;;;;;32.78;21.33;;;15.30;99.90;;;;;;5032164;28;20045;-77
2022/10/21 10:06:57;;;;;;;30.85;18.95;;;15.30;99.90;;;;;;5000701;28;20136;-78
2022/10/21 10:09:31;;;;;;;31.27;20.35;;;15.40;99.90;;;;;;5032094;28;20048;-79
2022/10/21 10:12:02;;;;;;;31.13;19.40;;;15.50;99.90;;;;;;5014678;28;20067;-78
2022/10/21 10:14:35;;;;;;;28.15;17.10;;;15.50;99.90;;;;;;5013595;28;20153;-79
2022/10/21 10:17:24;;;;;;;28.45;15.50;;;15.50;99.90;;;;;;5031979;28;20057;-76
2022/10/21 10:20:02;;;;;;;27.05;18.40;;;15.50;99.90;;;;;;4997819;28;20103;-77
2022/10/21 10:22:42;;;;;;;28.98;17.23;;;15.50;99.90;;;;;;5031764;28;20495;-76
2022/10/21 10:25:11;;;;;;;24.65;16.48;;;15.60;99.90;;;;;;5031866;28;20164;-77
2022/10/21 10:27:58;;;;;;;41.70;28.00;;;15.60;99.90;;;;;;5031536;28;20119;-77
2022/10/21 10:30:37;;;;;;;32.42;22.85;;;15.60;99.90;;;;;;5006917;28;20402;-79
2022/10/21 10:33:23;;;;;;;25.70;17.05;;;15.60;99.90;;;;;;4997595;28;20053;-77
2022/10/21 10:35:52;;;;;;;25.05;15.68;;;15.70;99.90;;;;;;5014325;28;20413;-76
2022/10/21 10:38:26;;;;;;;26.35;16.45;;;15.70;99.90;;;;;;5033109;28;20441;-77
2022/10/21 10:40:52;;;;;;;23.67;15.10;;;15.70;99.90;;;;;;5032317;28;20095;-76
2022/10/21 10:43:29;;;;;;;26.23;16.92;;;15.70;99.90;;;;;;5031784;28;20049;-76
2022/10/21 10:46:09;;;;;;;22.17;13.10;;;15.80;99.90;;;;;;5031619;28;20067;-76
2022/10/21 10:48:45;;;;;;;24.80;14.93;;;15.80;99.90;;;;;;5013595;28;20099;-77
2022/10/21 10:51:33;;;;;;;25.33;16.30;;;15.80;99.90;;;;;;5013766;28;20464;-77
2022/10/21 10:54:19;;;;;;;25.42;14.43;;;15.80;99.90;;;;;;5032705;28;20053;-77
2022/10/21 10:56:54;;;;;;;22.50;15.00;;;15.90;99.90;;;;;;5023821;28;20052;-77
2022/10/21 10:59:29;;;;;;;24.50;15.15;;;15.80;99.90;;;;;;5031537;28;20108;-79
2022/10/21 11:02:11;;;;;;;22.35;14.45;;;15.90;99.90;;;;;;5031294;28;20375;-77
2022/10/21 11:04:45;;;;;;;23.50;13.65;;;15.90;99.90;;;;;;5031121;28;20441;-76
2022/10/21 11:07:24;;;;;;;28.40;14.70;;;16.00;99.90;;;;;;5031016;28;20625;-76
2022/10/21 11:09:55;;;;;;;24.25;14.63;;;16.10;99.90;;;;;;5014206;28;20057;-77
2022/10/21 11:12:25;;;;;;;20.33;12.80;;;16.10;99.90;;;;;;5013029;28;20152;-77
2022/10/21 11:14:55;;;;;;;24.52;12.82;;;16.10;99.90;;;;;;5013219;28;20049;-77
2022/10/21 11:17:29;;;;;;;21.13;12.85;;;16.10;99.90;;;;;;5013629;28;20044;-76
2022/10/21 11:20:07;;;;;;;22.48;13.13;;;16.10;99.90;;;;;;5013219;28;20064;-77
2022/10/21 11:22:45;;;;;;;21.73;11.98;;;16.10;99.90;;;;;;4997113;28;20046;-77
2022/10/21 11:25:41;;;;;;;22.80;12.88;;;16.20;99.90;;;;;;5013171;28;20078;-77
2022/10/21 11:28:18;;;;;;;17.65;12.05;;;16.20;99.90;;;;;;5030018;28;20429;-77
2022/10/21 11:30:59;;;;;;;24.75;13.15;;;16.20;99.90;;;;;;5013039;28;20095;-77
2022/10/21 11:33:56;;;;;;;20.85;12.05;;;16.20;99.90;;;;;;4996704;28;20100;-77
2022/10/21 11:36:28;;;;;;;21.88;11.90;;;16.30;99.90;;;;;;5012616;28;20517;-75
2022/10/21 11:39:15;;;;;;;22.13;12.55;;;16.40;99.90;;;;;;5013338;28;20058;-77
2022/10/21 11:42:16;;;;;;;19.92;11.82;;;16.50;99.90;;;;;;5013024;28;20081;-78
2022/10/21 11:45:19;;;;;;;18.15;9.93;;;16.60;99.90;;;;;;5013245;28;20100;-76
2022/10/21 11:47:50;;;;;;;17.50;9.80;;;16.60;99.90;;;;;;5013256;28;20148;-78
2022/10/21 11:50:37;;;;;;;18.52;10.65;;;16.70;99.90;;;;;;5012763;28;20638;-78
2022/10/21 11:53:20;;;;;;;15.00;9.65;;;16.60;99.90;;;;;;5030609;28;20128;-76
2022/10/21 11:56:30;;;;;;;17.83;10.65;;;16.70;99.90;;;;;;5013227;28;20053;-78
2022/10/21 11:59:04;;;;;;;13.45;9.20;;;16.90;99.90;;;;;;5030784;28;20049;-76
2022/10/21 12:01:48;;;;;;;16.75;9.73;;;16.90;99.90;;;;;;5030569;28;20457;-79
2022/10/21 12:04:20;;;;;;;17.40;9.65;;;17.00;99.90;;;;;;5030835;28;20042;-79
2022/10/21 12:06:49;;;;;;;17.88;9.80;;;17.10;99.90;;;;;;4996181;28;20460;-76
2022/10/21 12:09:21;;;;;;;13.52;8.63;;;17.10;99.90;;;;;;5012478;28;20158;-77
2022/10/21 12:11:56;;;;;;;12.88;8.30;;;17.10;99.90;;;;;;5014004;28;20050;-76
2022/10/21 12:14:28;;;;;;;17.58;8.65;;;17.10;99.90;;;;;;5030725;28;20049;-76
2022/10/21 12:16:57;;;;;;;18.60;8.52;;;16.90;99.90;;;;;;4995989;28;20053;-77
2022/10/21 12:19:25;;;;;;;14.57;7.93;;;16.90;99.90;;;;;;5012714;28;20408;-76
2022/10/21 12:21:51;;;;;;;17.73;8.95;;;16.80;99.90;;;;;;5030453;28;20132;-77
2022/10/21 12:24:23;;;;;;;15.95;7.88;;;16.80;99.90;;;;;;5030612;28;20045;-76
2022/10/21 12:27:13;;;;;;;13.30;7.72;;;16.80;99.90;;;;;;5033137;28;20041;-77
2022/10/21 12:29:58;;;;;;;13.57;7.95;;;16.80;99.90;;;;;;5030415;28;20045;-81
2022/10/21 12:32:30;;;;;;;17.20;8.18;;;16.80;99.90;;;;;;5012769;28;20061;-79
2022/10/21 12:34:56;;;;;;;15.43;8.75;;;16.80;99.90;;;;;;4996902;28;20053;-78
2022/10/21 12:37:42;;;;;;;11.57;7.25;;;16.80;99.90;;;;;;5032480;28;20091;-78
2022/10/21 12:40:10;;;;;;;15.75;7.32;;;16.80;99.90;;;;;;5017375;28;20060;-79
2022/10/21 12:42:46;;;;;;;14.63;7.55;;;16.80;99.90;;;;;;5016932;28;20068;-78
2022/10/21 12:45:27;;;;;;;11.15;6.97;;;16.70;99.90;;;;;;5017939;28;20049;-77
2022/10/21 12:47:53;;;;;;;14.65;7.63;;;16.80;99.90;;;;;;5016271;28;20088;-79
2022/10/21 12:50:31;;;;;;;14.38;7.88;;;16.80;99.90;;;;;;5016038;28;20060;-79